sensor_id;sensor_type;location;lat;lon;timestamp;P1;durP1;ratioP1;P2;durP2;ratioP2
11098;SDS011;12223;42.650;23.364;2024-03-06T00:01:50;10.35;;;5.95;;
11098;SDS011;12223;42.650;23.364;2024-03-06T00:04:16;10.68;;;6.03;;
11098;SDS011;12223;42.650;23.364;2024-03-06T00:06:41;12.05;;;6.00;;
11098;SDS011;12223;42.650;23.364;2024-03-06T00:09:07;10.05;;;6.07;;
11098;SDS011;12223;42.650;23.364;2024-03-06T00:11:33;11.48;;;6.22;;
11098;SDS011;12223;42.650;23.364;2024-03-06T00:14:00;9.98;;;5.95;;
11098;SDS011;12223;42.650;23.364;2024-03-06T00:16:27;12.30;;;6.53;;
11098;SDS011;12223;42.650;23.364;2024-03-06T00:18:52;12.02;;;6.45;;
11098;SDS011;12223;42.650;23.364;2024-03-06T00:21:18;9.48;;;5.53;;
11098;SDS011;12223;42.650;23.364;2024-03-06T00:23:43;12.30;;;6.68;;
11098;SDS011;12223;42.650;23.364;2024-03-06T00:26:11;12.05;;;6.70;;
11098;SDS011;12223;42.650;23.364;2024-03-06T00:28:37;11.95;;;6.63;;
11098;SDS011;12223;42.650;23.364;2024-03-06T00:31:04;11.50;;;6.07;;
11098;SDS011;12223;42.650;23.364;2024-03-06T00:33:30;10.98;;;5.75;;
11098;SDS011;12223;42.650;23.364;2024-03-06T00:35:56;9.55;;;6.43;;
11098;SDS011;12223;42.650;23.364;2024-03-06T00:38:21;9.80;;;5.57;;
11098;SDS011;12223;42.650;23.364;2024-03-06T00:40:46;9.85;;;5.65;;
11098;SDS011;12223;42.650;23.364;2024-03-06T00:43:12;11.55;;;6.68;;
11098;SDS011;12223;42.650;23.364;2024-03-06T00:45:37;10.88;;;6.20;;
11098;SDS011;12223;42.650;23.364;2024-03-06T00:48:03;9.85;;;5.35;;
11098;SDS011;12223;42.650;23.364;2024-03-06T00:50:28;12.23;;;6.72;;
11098;SDS011;12223;42.650;23.364;2024-03-06T00:52:54;10.88;;;6.10;;
11098;SDS011;12223;42.650;23.364;2024-03-06T00:55:19;10.70;;;6.07;;
11098;SDS011;12223;42.650;23.364;2024-03-06T00:57:44;10.82;;;6.63;;
11098;SDS011;12223;42.650;23.364;2024-03-06T01:00:10;10.93;;;6.25;;
11098;SDS011;12223;42.650;23.364;2024-03-06T01:02:39;11.80;;;5.85;;
11098;SDS011;12223;42.650;23.364;2024-03-06T01:05:05;9.73;;;5.70;;
11098;SDS011;12223;42.650;23.364;2024-03-06T01:07:31;10.60;;;5.85;;
11098;SDS011;12223;42.650;23.364;2024-03-06T01:09:57;9.98;;;5.70;;
11098;SDS011;12223;42.650;23.364;2024-03-06T01:12:23;10.43;;;6.10;;
11098;SDS011;12223;42.650;23.364;2024-03-06T01:14:49;11.70;;;5.78;;
11098;SDS011;12223;42.650;23.364;2024-03-06T01:17:14;11.52;;;6.43;;
11098;SDS011;12223;42.650;23.364;2024-03-06T01:19:40;9.30;;;5.80;;
11098;SDS011;12223;42.650;23.364;2024-03-06T01:22:08;9.02;;;5.35;;
11098;SDS011;12223;42.650;23.364;2024-03-06T01:24:34;10.60;;;5.60;;
11098;SDS011;12223;42.650;23.364;2024-03-06T01:26:59;11.48;;;5.90;;
11098;SDS011;12223;42.650;23.364;2024-03-06T01:29:27;11.05;;;5.72;;
11098;SDS011;12223;42.650;23.364;2024-03-06T01:31:53;9.55;;;6.47;;
11098;SDS011;12223;42.650;23.364;2024-03-06T01:34:19;8.30;;;5.05;;
11098;SDS011;12223;42.650;23.364;2024-03-06T01:36:44;9.02;;;5.35;;
11098;SDS011;12223;42.650;23.364;2024-03-06T01:39:09;10.15;;;5.97;;
11098;SDS011;12223;42.650;23.364;2024-03-06T01:41:35;9.88;;;6.35;;
11098;SDS011;12223;42.650;23.364;2024-03-06T01:44:01;10.98;;;5.82;;
11098;SDS011;12223;42.650;23.364;2024-03-06T01:46:28;9.55;;;5.72;;
11098;SDS011;12223;42.650;23.364;2024-03-06T01:48:54;8.38;;;5.45;;
11098;SDS011;12223;42.650;23.364;2024-03-06T01:51:19;8.77;;;4.95;;
11098;SDS011;12223;42.650;23.364;2024-03-06T01:53:45;8.07;;;4.80;;
11098;SDS011;12223;42.650;23.364;2024-03-06T01:56:10;9.73;;;5.47;;
11098;SDS011;12223;42.650;23.364;2024-03-06T01:58:39;8.52;;;5.55;;
11098;SDS011;12223;42.650;23.364;2024-03-06T02:01:06;9.77;;;5.25;;
11098;SDS011;12223;42.650;23.364;2024-03-06T02:03:32;8.55;;;4.90;;
11098;SDS011;12223;42.650;23.364;2024-03-06T02:05:58;9.55;;;5.53;;
11098;SDS011;12223;42.650;23.364;2024-03-06T02:08:26;10.05;;;5.38;;
11098;SDS011;12223;42.650;23.364;2024-03-06T02:10:52;8.80;;;5.53;;
11098;SDS011;12223;42.650;23.364;2024-03-06T02:13:17;10.27;;;5.68;;
11098;SDS011;12223;42.650;23.364;2024-03-06T02:15:44;9.57;;;5.47;;
11098;SDS011;12223;42.650;23.364;2024-03-06T02:18:10;9.93;;;5.50;;
11098;SDS011;12223;42.650;23.364;2024-03-06T02:20:38;7.10;;;5.00;;
11098;SDS011;12223;42.650;23.364;2024-03-06T02:23:05;9.13;;;5.68;;
11098;SDS011;12223;42.650;23.364;2024-03-06T02:25:30;8.85;;;5.03;;
11098;SDS011;12223;42.650;23.364;2024-03-06T02:27:56;8.98;;;5.35;;
11098;SDS011;12223;42.650;23.364;2024-03-06T02:30:21;8.65;;;5.63;;
11098;SDS011;12223;42.650;23.364;2024-03-06T02:32:47;9.75;;;5.18;;
11098;SDS011;12223;42.650;23.364;2024-03-06T02:35:12;8.75;;;5.00;;
11098;SDS011;12223;42.650;23.364;2024-03-06T02:37:38;8.32;;;4.97;;
11098;SDS011;12223;42.650;23.364;2024-03-06T02:40:06;7.57;;;5.00;;
11098;SDS011;12223;42.650;23.364;2024-03-06T02:42:32;8.32;;;4.40;;
11098;SDS011;12223;42.650;23.364;2024-03-06T02:44:58;8.45;;;5.70;;
11098;SDS011;12223;42.650;23.364;2024-03-06T02:47:23;7.97;;;4.60;;
11098;SDS011;12223;42.650;23.364;2024-03-06T02:49:49;7.97;;;4.20;;
11098;SDS011;12223;42.650;23.364;2024-03-06T02:52:14;8.55;;;4.93;;
11098;SDS011;12223;42.650;23.364;2024-03-06T02:54:43;7.47;;;4.82;;
11098;SDS011;12223;42.650;23.364;2024-03-06T02:57:08;7.63;;;4.75;;
11098;SDS011;12223;42.650;23.364;2024-03-06T02:59:34;8.60;;;5.65;;
11098;SDS011;12223;42.650;23.364;2024-03-06T03:01:59;7.47;;;4.72;;
11098;SDS011;12223;42.650;23.364;2024-03-06T03:04:25;8.68;;;5.05;;
11098;SDS011;12223;42.650;23.364;2024-03-06T03:06:51;7.85;;;4.63;;
11098;SDS011;12223;42.650;23.364;2024-03-06T03:09:17;8.25;;;4.97;;
11098;SDS011;12223;42.650;23.364;2024-03-06T03:11:42;8.70;;;5.05;;
11098;SDS011;12223;42.650;23.364;2024-03-06T03:14:09;8.50;;;5.00;;
11098;SDS011;12223;42.650;23.364;2024-03-06T03:16:34;9.77;;;5.10;;
11098;SDS011;12223;42.650;23.364;2024-03-06T03:19:00;7.07;;;4.53;;
11098;SDS011;12223;42.650;23.364;2024-03-06T03:21:26;10.18;;;4.65;;
11098;SDS011;12223;42.650;23.364;2024-03-06T03:23:51;7.65;;;4.38;;
11098;SDS011;12223;42.650;23.364;2024-03-06T03:26:17;8.65;;;5.22;;
11098;SDS011;12223;42.650;23.364;2024-03-06T03:28:42;8.40;;;4.70;;
11098;SDS011;12223;42.650;23.364;2024-03-06T03:31:08;7.82;;;4.80;;
11098;SDS011;12223;42.650;23.364;2024-03-06T03:33:34;7.50;;;4.45;;
11098;SDS011;12223;42.650;23.364;2024-03-06T03:36:03;8.93;;;6.97;;
11098;SDS011;12223;42.650;23.364;2024-03-06T03:38:30;7.55;;;4.70;;
11098;SDS011;12223;42.650;23.364;2024-03-06T03:40:56;8.15;;;4.78;;
11098;SDS011;12223;42.650;23.364;2024-03-06T03:43:21;7.85;;;4.60;;
11098;SDS011;12223;42.650;23.364;2024-03-06T03:45:46;7.13;;;4.30;;
11098;SDS011;12223;42.650;23.364;2024-03-06T03:48:12;7.80;;;4.55;;
11098;SDS011;12223;42.650;23.364;2024-03-06T03:50:37;6.55;;;4.60;;
11098;SDS011;12223;42.650;23.364;2024-03-06T03:53:03;7.80;;;4.85;;
11098;SDS011;12223;42.650;23.364;2024-03-06T03:55:29;8.43;;;4.70;;
11098;SDS011;12223;42.650;23.364;2024-03-06T03:57:54;7.47;;;4.30;;
11098;SDS011;12223;42.650;23.364;2024-03-06T04:00:19;6.85;;;4.25;;
11098;SDS011;12223;42.650;23.364;2024-03-06T04:02:45;6.55;;;4.07;;
11098;SDS011;12223;42.650;23.364;2024-03-06T04:05:11;6.53;;;4.05;;
11098;SDS011;12223;42.650;23.364;2024-03-06T04:07:36;7.53;;;4.32;;
11098;SDS011;12223;42.650;23.364;2024-03-06T04:10:03;7.47;;;5.20;;
11098;SDS011;12223;42.650;23.364;2024-03-06T04:12:29;7.65;;;4.32;;
11098;SDS011;12223;42.650;23.364;2024-03-06T04:14:54;7.68;;;4.32;;
11098;SDS011;12223;42.650;23.364;2024-03-06T04:17:20;7.07;;;4.43;;
11098;SDS011;12223;42.650;23.364;2024-03-06T04:19:45;6.90;;;4.15;;
11098;SDS011;12223;42.650;23.364;2024-03-06T04:22:13;6.35;;;3.55;;
11098;SDS011;12223;42.650;23.364;2024-03-06T04:24:40;7.13;;;4.25;;
11098;SDS011;12223;42.650;23.364;2024-03-06T04:27:07;7.13;;;4.35;;
11098;SDS011;12223;42.650;23.364;2024-03-06T04:29:33;6.05;;;4.05;;
11098;SDS011;12223;42.650;23.364;2024-03-06T04:31:58;7.03;;;4.15;;
11098;SDS011;12223;42.650;23.364;2024-03-06T04:34:24;6.47;;;3.85;;
11098;SDS011;12223;42.650;23.364;2024-03-06T04:36:49;5.57;;;3.35;;
11098;SDS011;12223;42.650;23.364;2024-03-06T04:39:14;6.10;;;4.05;;
11098;SDS011;12223;42.650;23.364;2024-03-06T04:41:40;6.05;;;3.85;;
11098;SDS011;12223;42.650;23.364;2024-03-06T04:44:05;6.07;;;4.10;;
11098;SDS011;12223;42.650;23.364;2024-03-06T04:46:31;7.18;;;4.10;;
11098;SDS011;12223;42.650;23.364;2024-03-06T04:48:56;6.80;;;4.10;;
11098;SDS011;12223;42.650;23.364;2024-03-06T04:51:22;6.68;;;3.55;;
11098;SDS011;12223;42.650;23.364;2024-03-06T04:53:47;6.05;;;3.67;;
11098;SDS011;12223;42.650;23.364;2024-03-06T04:56:13;6.38;;;4.43;;
11098;SDS011;12223;42.650;23.364;2024-03-06T04:58:39;6.28;;;3.85;;
11098;SDS011;12223;42.650;23.364;2024-03-06T05:01:05;5.45;;;3.53;;
11098;SDS011;12223;42.650;23.364;2024-03-06T05:03:31;6.93;;;3.75;;
11098;SDS011;12223;42.650;23.364;2024-03-06T05:05:57;6.63;;;3.50;;
11098;SDS011;12223;42.650;23.364;2024-03-06T05:08:22;6.18;;;4.22;;
11098;SDS011;12223;42.650;23.364;2024-03-06T05:10:47;6.95;;;4.07;;
11098;SDS011;12223;42.650;23.364;2024-03-06T05:13:13;5.03;;;3.67;;
11098;SDS011;12223;42.650;23.364;2024-03-06T05:15:38;5.60;;;3.63;;
11098;SDS011;12223;42.650;23.364;2024-03-06T05:18:04;5.68;;;3.67;;
11098;SDS011;12223;42.650;23.364;2024-03-06T05:20:30;6.40;;;3.88;;
11098;SDS011;12223;42.650;23.364;2024-03-06T05:22:56;7.40;;;3.53;;
11098;SDS011;12223;42.650;23.364;2024-03-06T05:25:22;6.10;;;3.33;;
11098;SDS011;12223;42.650;23.364;2024-03-06T05:27:47;8.05;;;3.80;;
11098;SDS011;12223;42.650;23.364;2024-03-06T05:30:12;6.82;;;3.40;;
11098;SDS011;12223;42.650;23.364;2024-03-06T05:32:39;6.50;;;3.40;;
11098;SDS011;12223;42.650;23.364;2024-03-06T05:35:06;4.70;;;3.03;;
11098;SDS011;12223;42.650;23.364;2024-03-06T05:37:34;4.53;;;3.03;;
11098;SDS011;12223;42.650;23.364;2024-03-06T05:40:00;7.65;;;3.15;;
11098;SDS011;12223;42.650;23.364;2024-03-06T05:42:25;5.53;;;3.40;;
11098;SDS011;12223;42.650;23.364;2024-03-06T05:44:51;5.40;;;2.83;;
11098;SDS011;12223;42.650;23.364;2024-03-06T05:47:19;12.00;;;3.10;;
11098;SDS011;12223;42.650;23.364;2024-03-06T05:49:45;5.13;;;2.88;;
11098;SDS011;12223;42.650;23.364;2024-03-06T05:52:10;5.38;;;2.80;;
11098;SDS011;12223;42.650;23.364;2024-03-06T05:54:35;5.70;;;2.60;;
11098;SDS011;12223;42.650;23.364;2024-03-06T05:57:02;6.70;;;3.35;;
11098;SDS011;12223;42.650;23.364;2024-03-06T05:59:28;6.25;;;2.92;;
11098;SDS011;12223;42.650;23.364;2024-03-06T06:01:54;7.20;;;3.28;;
11098;SDS011;12223;42.650;23.364;2024-03-06T06:04:20;9.32;;;3.75;;
11098;SDS011;12223;42.650;23.364;2024-03-06T06:06:45;5.53;;;2.95;;
11098;SDS011;12223;42.650;23.364;2024-03-06T06:09:10;7.43;;;3.10;;
11098;SDS011;12223;42.650;23.364;2024-03-06T06:11:41;5.78;;;2.60;;
11098;SDS011;12223;42.650;23.364;2024-03-06T06:14:07;4.38;;;2.50;;
11098;SDS011;12223;42.650;23.364;2024-03-06T06:16:39;4.72;;;2.70;;
11098;SDS011;12223;42.650;23.364;2024-03-06T06:19:06;4.35;;;2.70;;
11098;SDS011;12223;42.650;23.364;2024-03-06T06:21:32;4.35;;;2.70;;
11098;SDS011;12223;42.650;23.364;2024-03-06T06:23:58;5.63;;;2.53;;
11098;SDS011;12223;42.650;23.364;2024-03-06T06:26:23;5.45;;;2.75;;
11098;SDS011;12223;42.650;23.364;2024-03-06T06:28:49;5.40;;;2.90;;
11098;SDS011;12223;42.650;23.364;2024-03-06T06:31:14;3.65;;;2.45;;
11098;SDS011;12223;42.650;23.364;2024-03-06T06:33:40;4.50;;;2.50;;
11098;SDS011;12223;42.650;23.364;2024-03-06T06:36:05;4.40;;;2.38;;
11098;SDS011;12223;42.650;23.364;2024-03-06T06:38:31;3.75;;;2.55;;
11098;SDS011;12223;42.650;23.364;2024-03-06T06:40:56;4.05;;;2.47;;
11098;SDS011;12223;42.650;23.364;2024-03-06T06:43:22;5.55;;;2.78;;
11098;SDS011;12223;42.650;23.364;2024-03-06T06:45:47;4.82;;;2.63;;
11098;SDS011;12223;42.650;23.364;2024-03-06T06:48:12;4.00;;;2.58;;
11098;SDS011;12223;42.650;23.364;2024-03-06T06:50:38;4.03;;;2.28;;
11098;SDS011;12223;42.650;23.364;2024-03-06T06:53:03;3.95;;;2.28;;
11098;SDS011;12223;42.650;23.364;2024-03-06T06:55:29;4.38;;;2.60;;
11098;SDS011;12223;42.650;23.364;2024-03-06T06:57:55;6.57;;;2.28;;
11098;SDS011;12223;42.650;23.364;2024-03-06T07:00:20;4.35;;;2.30;;
11098;SDS011;12223;42.650;23.364;2024-03-06T07:02:48;5.85;;;2.63;;
11098;SDS011;12223;42.650;23.364;2024-03-06T07:05:14;3.30;;;1.92;;
11098;SDS011;12223;42.650;23.364;2024-03-06T07:07:40;2.70;;;2.35;;
11098;SDS011;12223;42.650;23.364;2024-03-06T07:10:06;3.72;;;2.13;;
11098;SDS011;12223;42.650;23.364;2024-03-06T07:12:31;4.10;;;2.50;;
11098;SDS011;12223;42.650;23.364;2024-03-06T07:14:57;3.58;;;2.13;;
11098;SDS011;12223;42.650;23.364;2024-03-06T07:17:24;3.65;;;2.15;;
11098;SDS011;12223;42.650;23.364;2024-03-06T07:19:50;4.65;;;2.30;;
11098;SDS011;12223;42.650;23.364;2024-03-06T07:22:17;26.17;;;7.80;;
11098;SDS011;12223;42.650;23.364;2024-03-06T07:24:43;47.03;;;26.17;;
11098;SDS011;12223;42.650;23.364;2024-03-06T07:27:08;38.45;;;20.67;;
11098;SDS011;12223;42.650;23.364;2024-03-06T07:29:34;27.92;;;18.88;;
11098;SDS011;12223;42.650;23.364;2024-03-06T07:32:00;18.15;;;11.75;;
11098;SDS011;12223;42.650;23.364;2024-03-06T07:34:26;29.33;;;12.95;;
11098;SDS011;12223;42.650;23.364;2024-03-06T07:36:52;33.53;;;15.60;;
11098;SDS011;12223;42.650;23.364;2024-03-06T07:39:21;27.13;;;15.32;;
11098;SDS011;12223;42.650;23.364;2024-03-06T07:41:46;45.13;;;16.92;;
11098;SDS011;12223;42.650;23.364;2024-03-06T07:44:12;36.55;;;15.82;;
11098;SDS011;12223;42.650;23.364;2024-03-06T07:46:37;30.02;;;15.15;;
11098;SDS011;12223;42.650;23.364;2024-03-06T07:49:03;32.33;;;17.33;;
11098;SDS011;12223;42.650;23.364;2024-03-06T07:51:30;46.05;;;25.23;;
11098;SDS011;12223;42.650;23.364;2024-03-06T07:53:56;37.25;;;18.83;;
11098;SDS011;12223;42.650;23.364;2024-03-06T07:56:22;44.72;;;19.15;;
11098;SDS011;12223;42.650;23.364;2024-03-06T07:58:48;31.40;;;15.73;;
11098;SDS011;12223;42.650;23.364;2024-03-06T08:01:14;31.30;;;15.73;;
11098;SDS011;12223;42.650;23.364;2024-03-06T08:03:40;30.35;;;14.75;;
11098;SDS011;12223;42.650;23.364;2024-03-06T08:06:09;32.95;;;16.70;;
11098;SDS011;12223;42.650;23.364;2024-03-06T08:08:35;27.55;;;16.00;;
11098;SDS011;12223;42.650;23.364;2024-03-06T08:11:01;31.08;;;16.20;;
11098;SDS011;12223;42.650;23.364;2024-03-06T08:13:27;30.35;;;14.45;;
11098;SDS011;12223;42.650;23.364;2024-03-06T08:15:53;31.85;;;14.80;;
11098;SDS011;12223;42.650;23.364;2024-03-06T08:18:18;27.02;;;13.90;;
11098;SDS011;12223;42.650;23.364;2024-03-06T08:20:43;31.63;;;16.95;;
11098;SDS011;12223;42.650;23.364;2024-03-06T08:23:09;22.77;;;12.88;;
11098;SDS011;12223;42.650;23.364;2024-03-06T08:25:37;32.38;;;14.90;;
11098;SDS011;12223;42.650;23.364;2024-03-06T08:28:02;20.95;;;10.13;;
11098;SDS011;12223;42.650;23.364;2024-03-06T08:30:28;19.70;;;10.65;;
11098;SDS011;12223;42.650;23.364;2024-03-06T08:32:55;23.52;;;10.75;;
11098;SDS011;12223;42.650;23.364;2024-03-06T08:35:21;20.17;;;9.82;;
11098;SDS011;12223;42.650;23.364;2024-03-06T08:37:48;14.75;;;8.73;;
11098;SDS011;12223;42.650;23.364;2024-03-06T08:40:15;13.07;;;8.43;;
11098;SDS011;12223;42.650;23.364;2024-03-06T08:42:44;13.68;;;8.57;;
11098;SDS011;12223;42.650;23.364;2024-03-06T08:45:12;14.90;;;7.78;;
11098;SDS011;12223;42.650;23.364;2024-03-06T08:47:37;15.75;;;8.70;;
11098;SDS011;12223;42.650;23.364;2024-03-06T08:50:03;10.95;;;7.38;;
11098;SDS011;12223;42.650;23.364;2024-03-06T08:52:29;14.52;;;7.95;;
11098;SDS011;12223;42.650;23.364;2024-03-06T08:54:56;80.57;;;16.27;;
11098;SDS011;12223;42.650;23.364;2024-03-06T08:57:21;57.42;;;14.15;;
11098;SDS011;12223;42.650;23.364;2024-03-06T08:59:47;48.17;;;14.32;;
11098;SDS011;12223;42.650;23.364;2024-03-06T09:02:13;27.38;;;12.75;;
11098;SDS011;12223;42.650;23.364;2024-03-06T09:04:41;38.38;;;12.27;;
11098;SDS011;12223;42.650;23.364;2024-03-06T09:07:07;22.88;;;10.65;;
11098;SDS011;12223;42.650;23.364;2024-03-06T09:09:33;23.00;;;9.80;;
11098;SDS011;12223;42.650;23.364;2024-03-06T09:12:03;18.92;;;10.98;;
11098;SDS011;12223;42.650;23.364;2024-03-06T09:14:35;23.33;;;11.88;;
11098;SDS011;12223;42.650;23.364;2024-03-06T09:17:01;25.48;;;11.18;;
11098;SDS011;12223;42.650;23.364;2024-03-06T09:19:27;20.83;;;10.77;;
11098;SDS011;12223;42.650;23.364;2024-03-06T09:21:53;17.70;;;9.68;;
11098;SDS011;12223;42.650;23.364;2024-03-06T09:24:20;18.88;;;9.25;;
11098;SDS011;12223;42.650;23.364;2024-03-06T09:26:47;16.60;;;9.45;;
11098;SDS011;12223;42.650;23.364;2024-03-06T09:29:14;15.93;;;8.10;;
11098;SDS011;12223;42.650;23.364;2024-03-06T09:31:39;15.75;;;8.63;;
11098;SDS011;12223;42.650;23.364;2024-03-06T09:34:05;15.65;;;7.45;;
11098;SDS011;12223;42.650;23.364;2024-03-06T09:36:30;21.10;;;9.30;;
11098;SDS011;12223;42.650;23.364;2024-03-06T09:38:58;14.00;;;8.45;;
11098;SDS011;12223;42.650;23.364;2024-03-06T09:41:23;15.30;;;8.30;;
11098;SDS011;12223;42.650;23.364;2024-03-06T09:43:49;14.32;;;7.90;;
11098;SDS011;12223;42.650;23.364;2024-03-06T09:46:15;15.88;;;8.52;;
11098;SDS011;12223;42.650;23.364;2024-03-06T09:48:43;20.40;;;8.95;;
11098;SDS011;12223;42.650;23.364;2024-03-06T09:51:11;19.77;;;10.38;;
11098;SDS011;12223;42.650;23.364;2024-03-06T09:53:41;21.52;;;10.38;;
11098;SDS011;12223;42.650;23.364;2024-03-06T09:56:09;17.98;;;8.68;;
11098;SDS011;12223;42.650;23.364;2024-03-06T09:58:35;21.75;;;8.18;;
11098;SDS011;12223;42.650;23.364;2024-03-06T10:01:01;14.80;;;7.90;;
11098;SDS011;12223;42.650;23.364;2024-03-06T10:03:32;14.93;;;7.57;;
11098;SDS011;12223;42.650;23.364;2024-03-06T10:06:01;13.93;;;7.63;;
11098;SDS011;12223;42.650;23.364;2024-03-06T10:08:26;14.70;;;6.70;;
11098;SDS011;12223;42.650;23.364;2024-03-06T10:10:52;15.35;;;6.97;;
11098;SDS011;12223;42.650;23.364;2024-03-06T10:13:22;13.45;;;6.30;;
11098;SDS011;12223;42.650;23.364;2024-03-06T10:16:00;19.67;;;6.43;;
11098;SDS011;12223;42.650;23.364;2024-03-06T10:18:27;15.40;;;6.65;;
11098;SDS011;12223;42.650;23.364;2024-03-06T10:20:53;20.73;;;6.60;;
11098;SDS011;12223;42.650;23.364;2024-03-06T10:23:19;18.10;;;7.13;;
11098;SDS011;12223;42.650;23.364;2024-03-06T10:25:46;15.52;;;6.28;;
11098;SDS011;12223;42.650;23.364;2024-03-06T10:28:17;19.73;;;8.27;;
11098;SDS011;12223;42.650;23.364;2024-03-06T10:30:43;22.85;;;8.77;;
11098;SDS011;12223;42.650;23.364;2024-03-06T10:33:10;20.17;;;8.23;;
11098;SDS011;12223;42.650;23.364;2024-03-06T10:35:36;26.50;;;10.85;;
11098;SDS011;12223;42.650;23.364;2024-03-06T10:38:05;29.35;;;12.32;;
11098;SDS011;12223;42.650;23.364;2024-03-06T10:40:33;69.50;;;25.80;;
11098;SDS011;12223;42.650;23.364;2024-03-06T10:43:01;58.85;;;22.75;;
11098;SDS011;12223;42.650;23.364;2024-03-06T10:45:32;64.35;;;24.70;;
11098;SDS011;12223;42.650;23.364;2024-03-06T10:48:13;59.83;;;25.35;;
11098;SDS011;12223;42.650;23.364;2024-03-06T10:50:39;59.55;;;24.63;;
11098;SDS011;12223;42.650;23.364;2024-03-06T10:53:09;61.72;;;25.08;;
11098;SDS011;12223;42.650;23.364;2024-03-06T10:55:35;66.03;;;26.33;;
11098;SDS011;12223;42.650;23.364;2024-03-06T10:58:01;101.38;;;38.00;;
11098;SDS011;12223;42.650;23.364;2024-03-06T11:00:33;118.97;;;43.35;;
11098;SDS011;12223;42.650;23.364;2024-03-06T11:03:13;116.57;;;45.67;;
11098;SDS011;12223;42.650;23.364;2024-03-06T11:05:39;123.38;;;44.15;;
11098;SDS011;12223;42.650;23.364;2024-03-06T11:08:08;115.45;;;43.55;;
11098;SDS011;12223;42.650;23.364;2024-03-06T11:13:03;104.50;;;41.92;;
11098;SDS011;12223;42.650;23.364;2024-03-06T11:15:29;102.93;;;41.22;;
11098;SDS011;12223;42.650;23.364;2024-03-06T11:17:55;98.28;;;39.00;;
11098;SDS011;12223;42.650;23.364;2024-03-06T11:20:21;99.45;;;39.10;;
11098;SDS011;12223;42.650;23.364;2024-03-06T11:28:23;83.57;;;34.90;;
11098;SDS011;12223;42.650;23.364;2024-03-06T11:33:47;83.93;;;35.45;;
11098;SDS011;12223;42.650;23.364;2024-03-06T11:38:55;82.25;;;33.97;;
11098;SDS011;12223;42.650;23.364;2024-03-06T11:41:26;74.55;;;33.33;;
11098;SDS011;12223;42.650;23.364;2024-03-06T11:43:53;80.43;;;33.65;;
11098;SDS011;12223;42.650;23.364;2024-03-06T11:46:20;77.72;;;33.05;;
11098;SDS011;12223;42.650;23.364;2024-03-06T11:48:56;83.15;;;32.92;;
11098;SDS011;12223;42.650;23.364;2024-03-06T11:51:22;77.53;;;32.67;;
11098;SDS011;12223;42.650;23.364;2024-03-06T11:53:51;71.18;;;31.75;;
11098;SDS011;12223;42.650;23.364;2024-03-06T11:58:45;70.13;;;28.33;;
11098;SDS011;12223;42.650;23.364;2024-03-06T12:01:10;52.78;;;23.67;;
11098;SDS011;12223;42.650;23.364;2024-03-06T12:03:36;60.67;;;27.35;;
11098;SDS011;12223;42.650;23.364;2024-03-06T12:06:02;58.20;;;25.05;;
11098;SDS011;12223;42.650;23.364;2024-03-06T12:08:28;53.10;;;23.40;;
11098;SDS011;12223;42.650;23.364;2024-03-06T12:10:53;57.85;;;25.63;;
11098;SDS011;12223;42.650;23.364;2024-03-06T12:13:23;47.80;;;22.30;;
11098;SDS011;12223;42.650;23.364;2024-03-06T12:15:49;51.20;;;23.98;;
11098;SDS011;12223;42.650;23.364;2024-03-06T12:18:16;50.75;;;23.05;;
11098;SDS011;12223;42.650;23.364;2024-03-06T12:20:42;50.38;;;22.50;;
11098;SDS011;12223;42.650;23.364;2024-03-06T12:23:18;50.78;;;22.70;;
11098;SDS011;12223;42.650;23.364;2024-03-06T12:25:46;44.97;;;19.55;;
11098;SDS011;12223;42.650;23.364;2024-03-06T12:28:11;43.67;;;21.90;;
11098;SDS011;12223;42.650;23.364;2024-03-06T12:30:41;44.65;;;19.65;;
11098;SDS011;12223;42.650;23.364;2024-03-06T12:33:08;43.75;;;19.65;;
11098;SDS011;12223;42.650;23.364;2024-03-06T12:35:33;45.10;;;20.45;;
11098;SDS011;12223;42.650;23.364;2024-03-06T12:37:59;41.80;;;20.10;;
11098;SDS011;12223;42.650;23.364;2024-03-06T12:40:24;43.83;;;19.75;;
11098;SDS011;12223;42.650;23.364;2024-03-06T12:42:50;47.15;;;19.73;;
11098;SDS011;12223;42.650;23.364;2024-03-06T12:45:17;38.10;;;17.90;;
11098;SDS011;12223;42.650;23.364;2024-03-06T12:47:43;42.95;;;19.10;;
11098;SDS011;12223;42.650;23.364;2024-03-06T12:50:11;40.33;;;18.58;;
11098;SDS011;12223;42.650;23.364;2024-03-06T12:52:37;41.65;;;19.08;;
11098;SDS011;12223;42.650;23.364;2024-03-06T12:55:03;38.28;;;17.17;;
11098;SDS011;12223;42.650;23.364;2024-03-06T12:57:32;35.95;;;16.90;;
11098;SDS011;12223;42.650;23.364;2024-03-06T12:59:57;41.70;;;17.02;;
11098;SDS011;12223;42.650;23.364;2024-03-06T13:02:23;37.67;;;16.77;;
11098;SDS011;12223;42.650;23.364;2024-03-06T13:04:49;33.17;;;16.02;;
11098;SDS011;12223;42.650;23.364;2024-03-06T13:07:15;47.53;;;21.05;;
11098;SDS011;12223;42.650;23.364;2024-03-06T13:09:40;47.45;;;22.83;;
11098;SDS011;12223;42.650;23.364;2024-03-06T13:12:06;46.13;;;22.80;;
11098;SDS011;12223;42.650;23.364;2024-03-06T13:14:32;57.17;;;24.15;;
11098;SDS011;12223;42.650;23.364;2024-03-06T13:16:58;48.22;;;23.55;;
11098;SDS011;12223;42.650;23.364;2024-03-06T13:19:24;45.25;;;21.70;;
11098;SDS011;12223;42.650;23.364;2024-03-06T13:21:49;41.40;;;20.48;;
11098;SDS011;12223;42.650;23.364;2024-03-06T13:24:15;45.83;;;20.38;;
11098;SDS011;12223;42.650;23.364;2024-03-06T13:26:40;44.75;;;20.80;;
11098;SDS011;12223;42.650;23.364;2024-03-06T13:29:06;45.03;;;21.00;;
11098;SDS011;12223;42.650;23.364;2024-03-06T13:31:32;38.17;;;19.15;;
11098;SDS011;12223;42.650;23.364;2024-03-06T13:33:59;40.00;;;19.30;;
11098;SDS011;12223;42.650;23.364;2024-03-06T13:36:25;40.42;;;19.42;;
11098;SDS011;12223;42.650;23.364;2024-03-06T13:38:50;37.03;;;17.75;;
11098;SDS011;12223;42.650;23.364;2024-03-06T13:41:16;35.83;;;18.38;;
11098;SDS011;12223;42.650;23.364;2024-03-06T13:43:42;38.05;;;19.13;;
11098;SDS011;12223;42.650;23.364;2024-03-06T13:46:08;34.08;;;19.20;;
11098;SDS011;12223;42.650;23.364;2024-03-06T13:48:33;37.40;;;19.05;;
11098;SDS011;12223;42.650;23.364;2024-03-06T13:50:59;34.83;;;17.80;;
11098;SDS011;12223;42.650;23.364;2024-03-06T13:53:24;29.95;;;15.95;;
11098;SDS011;12223;42.650;23.364;2024-03-06T13:55:50;33.72;;;17.15;;
11098;SDS011;12223;42.650;23.364;2024-03-06T13:58:15;29.30;;;11.35;;
11098;SDS011;12223;42.650;23.364;2024-03-06T14:00:41;11.55;;;5.53;;
11098;SDS011;12223;42.650;23.364;2024-03-06T14:03:06;13.60;;;8.60;;
11098;SDS011;12223;42.650;23.364;2024-03-06T14:05:31;7.07;;;4.22;;
11098;SDS011;12223;42.650;23.364;2024-03-06T14:07:57;5.43;;;3.72;;
11098;SDS011;12223;42.650;23.364;2024-03-06T14:10:22;16.50;;;7.03;;
11098;SDS011;12223;42.650;23.364;2024-03-06T14:12:49;19.10;;;8.25;;
11098;SDS011;12223;42.650;23.364;2024-03-06T14:15:19;19.27;;;8.70;;
11098;SDS011;12223;42.650;23.364;2024-03-06T14:17:44;15.30;;;7.00;;
11098;SDS011;12223;42.650;23.364;2024-03-06T14:20:10;14.32;;;7.35;;
11098;SDS011;12223;42.650;23.364;2024-03-06T14:25:07;14.88;;;7.35;;
11098;SDS011;12223;42.650;23.364;2024-03-06T14:27:33;14.77;;;7.75;;
11098;SDS011;12223;42.650;23.364;2024-03-06T14:30:00;16.52;;;7.78;;
11098;SDS011;12223;42.650;23.364;2024-03-06T14:32:27;15.77;;;8.23;;
11098;SDS011;12223;42.650;23.364;2024-03-06T14:34:52;13.32;;;7.05;;
11098;SDS011;12223;42.650;23.364;2024-03-06T14:37:18;16.13;;;7.90;;